Pagrindinis puslapis
METAR-TAF:

METAR-TAF

Oro uostai :

Bukareštas, Rumunija

platuma: 44-33N, ilguma: 026-06E, Aukštis: 95 m

Dabartinis oras

Ataskaita buvo paskelbta 24 minutes, ne 23:30 UTC
Vėjas 13 kt iš Šiaurės Rytų
Temperatūra 14°C
Drėgmė 55%
Slėgis 1021 hPa
Matomumas 10 km arba daugiau
nėra debesų žemiau 1500 m ir nėra kamuolinių lietaus debesų

METAR: LROP 182330Z 05013KT CAVOK 14/05 Q1021 NOSIG

Laikas: 02:54 (23:54 UTC)

Prognozė

Ataskaita buvo paskelbta 54 minutes, ne 23:00 UTC
Prognozė galioja nuo 19 metu 00 UTC su 19 metu 24 UTC
Vėjas 10 kt iš Rytų/Šiaurės Rytų
Matomumas 10 km arba daugiau
nėra debesų žemiau 1500 m ir nėra kamuolinių lietaus debesų
Tapsmas
nuo 19 metu 10 UTC su 19 metu 12 UTC
Vėjas 3 kt nuo kintamojo kryptimis

TAF: LROP 182300Z 1900/1924 07010KT CAVOK BECMG 1910/1912 VRB03KT

Orai ataskaitas ir orų prognozės (METAR, TAF).

turimą stotys yra geltonos ir raudonos taškus žemėlapyje.

Perkelti pele per norėdami pamatyti stoties vardą.

Tada spustelėkite, norėdami matyti oro stebėjimo ir prognozės.

Norėdami pakeisti žemėlapį: spustelėkite ant žalios mygtukų su juodo kryžiaus žemyn,; žalią mygtuką su brūkšneliu, jei norite nutolinti; arba žalių rodyklių gretimoms žemėlapius.


METAR-TAF: